sensor_id;sensor_type;location;lat;lon;timestamp;P1;durP1;ratioP1;P2;durP2;ratioP2
12681;SDS011;6405;59.208;18.216;2023-06-19T00:02:20;28.73;;;22.77;;
12681;SDS011;6405;59.208;18.216;2023-06-19T00:04:46;25.43;;;22.03;;
12681;SDS011;6405;59.208;18.216;2023-06-19T00:07:12;26.67;;;22.33;;
12681;SDS011;6405;59.208;18.216;2023-06-19T00:09:38;28.43;;;21.50;;
12681;SDS011;6405;59.208;18.216;2023-06-19T00:12:03;28.40;;;22.13;;
12681;SDS011;6405;59.208;18.216;2023-06-19T00:14:29;28.27;;;21.73;;
12681;SDS011;6405;59.208;18.216;2023-06-19T00:16:55;27.87;;;22.57;;
12681;SDS011;6405;59.208;18.216;2023-06-19T00:19:21;25.20;;;22.43;;
12681;SDS011;6405;59.208;18.216;2023-06-19T00:21:47;26.23;;;21.43;;
12681;SDS011;6405;59.208;18.216;2023-06-19T00:24:13;28.60;;;22.37;;
12681;SDS011;6405;59.208;18.216;2023-06-19T00:26:39;25.70;;;21.33;;
12681;SDS011;6405;59.208;18.216;2023-06-19T00:29:05;29.93;;;21.53;;
12681;SDS011;6405;59.208;18.216;2023-06-19T00:31:32;25.77;;;21.33;;
12681;SDS011;6405;59.208;18.216;2023-06-19T00:33:57;26.50;;;22.57;;
12681;SDS011;6405;59.208;18.216;2023-06-19T00:36:23;24.80;;;21.63;;
12681;SDS011;6405;59.208;18.216;2023-06-19T00:38:52;25.93;;;21.70;;
12681;SDS011;6405;59.208;18.216;2023-06-19T00:41:18;28.07;;;22.63;;
12681;SDS011;6405;59.208;18.216;2023-06-19T00:43:45;30.23;;;22.50;;
12681;SDS011;6405;59.208;18.216;2023-06-19T00:46:11;25.53;;;21.27;;
12681;SDS011;6405;59.208;18.216;2023-06-19T00:48:37;26.97;;;22.17;;
12681;SDS011;6405;59.208;18.216;2023-06-19T00:51:04;27.73;;;21.60;;
12681;SDS011;6405;59.208;18.216;2023-06-19T00:53:30;32.73;;;24.60;;
12681;SDS011;6405;59.208;18.216;2023-06-19T00:55:59;30.27;;;23.60;;
12681;SDS011;6405;59.208;18.216;2023-06-19T00:58:25;30.43;;;24.47;;
12681;SDS011;6405;59.208;18.216;2023-06-19T01:00:51;31.37;;;24.70;;
12681;SDS011;6405;59.208;18.216;2023-06-19T01:03:17;39.30;;;27.03;;
12681;SDS011;6405;59.208;18.216;2023-06-19T01:05:43;38.10;;;27.53;;
12681;SDS011;6405;59.208;18.216;2023-06-19T01:11:04;36.83;;;27.37;;
12681;SDS011;6405;59.208;18.216;2023-06-19T01:13:41;36.67;;;27.30;;
12681;SDS011;6405;59.208;18.216;2023-06-19T01:16:11;32.30;;;26.87;;
12681;SDS011;6405;59.208;18.216;2023-06-19T01:18:37;36.70;;;27.10;;
12681;SDS011;6405;59.208;18.216;2023-06-19T01:21:14;30.57;;;25.27;;
12681;SDS011;6405;59.208;18.216;2023-06-19T01:23:41;35.83;;;26.57;;
12681;SDS011;6405;59.208;18.216;2023-06-19T01:26:08;30.80;;;24.60;;
12681;SDS011;6405;59.208;18.216;2023-06-19T01:28:37;37.27;;;25.40;;
12681;SDS011;6405;59.208;18.216;2023-06-19T01:34:11;33.50;;;27.03;;
12681;SDS011;6405;59.208;18.216;2023-06-19T01:36:40;33.43;;;26.07;;
12681;SDS011;6405;59.208;18.216;2023-06-19T01:39:06;35.57;;;26.67;;
12681;SDS011;6405;59.208;18.216;2023-06-19T01:41:34;28.03;;;23.17;;
12681;SDS011;6405;59.208;18.216;2023-06-19T01:44:01;34.40;;;25.97;;
12681;SDS011;6405;59.208;18.216;2023-06-19T01:46:27;30.03;;;23.53;;
12681;SDS011;6405;59.208;18.216;2023-06-19T01:48:53;31.03;;;22.33;;
12681;SDS011;6405;59.208;18.216;2023-06-19T01:51:19;27.47;;;23.57;;
12681;SDS011;6405;59.208;18.216;2023-06-19T01:53:45;29.07;;;22.80;;
12681;SDS011;6405;59.208;18.216;2023-06-19T01:56:11;26.27;;;22.23;;
12681;SDS011;6405;59.208;18.216;2023-06-19T01:58:37;25.80;;;20.43;;
12681;SDS011;6405;59.208;18.216;2023-06-19T02:01:02;24.03;;;20.27;;
12681;SDS011;6405;59.208;18.216;2023-06-19T02:03:28;23.57;;;21.07;;
12681;SDS011;6405;59.208;18.216;2023-06-19T02:05:54;21.93;;;19.60;;
12681;SDS011;6405;59.208;18.216;2023-06-19T02:08:20;22.73;;;20.43;;
12681;SDS011;6405;59.208;18.216;2023-06-19T02:10:46;22.57;;;19.83;;
12681;SDS011;6405;59.208;18.216;2023-06-19T02:13:11;22.43;;;20.13;;
12681;SDS011;6405;59.208;18.216;2023-06-19T02:15:37;22.83;;;20.33;;
12681;SDS011;6405;59.208;18.216;2023-06-19T02:18:03;23.13;;;19.80;;
12681;SDS011;6405;59.208;18.216;2023-06-19T02:20:30;22.50;;;20.13;;
12681;SDS011;6405;59.208;18.216;2023-06-19T02:22:56;21.73;;;19.67;;
12681;SDS011;6405;59.208;18.216;2023-06-19T02:25:22;20.13;;;18.30;;
12681;SDS011;6405;59.208;18.216;2023-06-19T02:27:48;21.00;;;18.93;;
12681;SDS011;6405;59.208;18.216;2023-06-19T02:30:13;22.60;;;20.30;;
12681;SDS011;6405;59.208;18.216;2023-06-19T02:32:39;21.07;;;18.87;;
12681;SDS011;6405;59.208;18.216;2023-06-19T02:35:06;21.57;;;19.33;;
12681;SDS011;6405;59.208;18.216;2023-06-19T02:37:34;20.30;;;18.30;;
12681;SDS011;6405;59.208;18.216;2023-06-19T02:40:01;18.37;;;16.60;;
12681;SDS011;6405;59.208;18.216;2023-06-19T02:42:28;20.00;;;17.90;;
12681;SDS011;6405;59.208;18.216;2023-06-19T02:44:54;20.67;;;18.47;;
12681;SDS011;6405;59.208;18.216;2023-06-19T02:47:20;20.00;;;17.90;;
12681;SDS011;6405;59.208;18.216;2023-06-19T02:49:45;19.27;;;17.53;;
12681;SDS011;6405;59.208;18.216;2023-06-19T02:52:11;20.93;;;19.00;;
12681;SDS011;6405;59.208;18.216;2023-06-19T02:54:37;20.20;;;18.27;;
12681;SDS011;6405;59.208;18.216;2023-06-19T02:57:02;21.77;;;18.37;;
12681;SDS011;6405;59.208;18.216;2023-06-19T02:59:28;20.20;;;18.23;;
12681;SDS011;6405;59.208;18.216;2023-06-19T03:01:54;18.73;;;17.03;;
12681;SDS011;6405;59.208;18.216;2023-06-19T03:04:20;18.77;;;17.03;;
12681;SDS011;6405;59.208;18.216;2023-06-19T03:06:45;18.90;;;17.00;;
12681;SDS011;6405;59.208;18.216;2023-06-19T03:09:11;19.87;;;18.07;;
12681;SDS011;6405;59.208;18.216;2023-06-19T03:11:40;18.93;;;16.93;;
12681;SDS011;6405;59.208;18.216;2023-06-19T03:14:07;19.80;;;17.83;;
12681;SDS011;6405;59.208;18.216;2023-06-19T03:16:34;19.13;;;17.23;;
12681;SDS011;6405;59.208;18.216;2023-06-19T03:19:00;18.60;;;16.80;;
12681;SDS011;6405;59.208;18.216;2023-06-19T03:21:26;19.70;;;17.60;;
12681;SDS011;6405;59.208;18.216;2023-06-19T03:23:53;18.83;;;16.37;;
12681;SDS011;6405;59.208;18.216;2023-06-19T03:26:19;19.30;;;17.33;;
12681;SDS011;6405;59.208;18.216;2023-06-19T03:28:46;17.57;;;15.97;;
12681;SDS011;6405;59.208;18.216;2023-06-19T03:31:12;18.27;;;16.53;;
12681;SDS011;6405;59.208;18.216;2023-06-19T03:33:38;18.50;;;16.80;;
12681;SDS011;6405;59.208;18.216;2023-06-19T03:36:04;19.70;;;17.70;;
12681;SDS011;6405;59.208;18.216;2023-06-19T03:38:30;18.43;;;16.73;;
12681;SDS011;6405;59.208;18.216;2023-06-19T03:40:56;20.40;;;18.30;;
12681;SDS011;6405;59.208;18.216;2023-06-19T03:43:22;19.07;;;17.17;;
12681;SDS011;6405;59.208;18.216;2023-06-19T03:45:48;20.30;;;17.83;;
12681;SDS011;6405;59.208;18.216;2023-06-19T03:48:15;20.20;;;18.27;;
12681;SDS011;6405;59.208;18.216;2023-06-19T03:50:42;21.10;;;17.57;;
12681;SDS011;6405;59.208;18.216;2023-06-19T03:53:08;20.20;;;18.13;;
12681;SDS011;6405;59.208;18.216;2023-06-19T03:55:33;19.20;;;17.10;;
12681;SDS011;6405;59.208;18.216;2023-06-19T03:57:59;20.73;;;17.87;;
12681;SDS011;6405;59.208;18.216;2023-06-19T04:00:25;19.53;;;17.43;;
12681;SDS011;6405;59.208;18.216;2023-06-19T04:02:51;20.27;;;18.07;;
12681;SDS011;6405;59.208;18.216;2023-06-19T04:05:17;21.17;;;19.07;;
12681;SDS011;6405;59.208;18.216;2023-06-19T04:07:43;20.03;;;17.60;;
12681;SDS011;6405;59.208;18.216;2023-06-19T04:10:09;19.73;;;17.30;;
12681;SDS011;6405;59.208;18.216;2023-06-19T04:12:36;21.00;;;18.83;;
12681;SDS011;6405;59.208;18.216;2023-06-19T04:15:03;20.70;;;18.27;;
12681;SDS011;6405;59.208;18.216;2023-06-19T04:17:29;21.23;;;18.90;;
12681;SDS011;6405;59.208;18.216;2023-06-19T04:19:56;21.13;;;18.43;;
12681;SDS011;6405;59.208;18.216;2023-06-19T04:22:21;19.90;;;17.87;;
12681;SDS011;6405;59.208;18.216;2023-06-19T04:24:47;20.40;;;18.33;;
12681;SDS011;6405;59.208;18.216;2023-06-19T04:27:13;22.77;;;19.47;;
12681;SDS011;6405;59.208;18.216;2023-06-19T04:29:39;22.80;;;18.43;;
12681;SDS011;6405;59.208;18.216;2023-06-19T04:32:04;20.53;;;17.30;;
12681;SDS011;6405;59.208;18.216;2023-06-19T04:34:36;23.43;;;17.90;;
12681;SDS011;6405;59.208;18.216;2023-06-19T04:37:11;19.67;;;16.20;;
12681;SDS011;6405;59.208;18.216;2023-06-19T04:39:37;21.60;;;18.10;;
12681;SDS011;6405;59.208;18.216;2023-06-19T04:42:03;23.50;;;18.40;;
12681;SDS011;6405;59.208;18.216;2023-06-19T04:44:29;21.47;;;17.20;;
12681;SDS011;6405;59.208;18.216;2023-06-19T04:46:58;20.73;;;16.67;;
12681;SDS011;6405;59.208;18.216;2023-06-19T04:49:29;17.70;;;15.47;;
12681;SDS011;6405;59.208;18.216;2023-06-19T04:51:56;19.27;;;15.73;;
12681;SDS011;6405;59.208;18.216;2023-06-19T04:54:22;19.80;;;15.00;;
12681;SDS011;6405;59.208;18.216;2023-06-19T04:56:48;15.93;;;13.77;;
12681;SDS011;6405;59.208;18.216;2023-06-19T04:59:14;15.83;;;13.33;;
12681;SDS011;6405;59.208;18.216;2023-06-19T05:01:44;17.83;;;14.50;;
12681;SDS011;6405;59.208;18.216;2023-06-19T05:04:10;19.43;;;14.47;;
12681;SDS011;6405;59.208;18.216;2023-06-19T05:06:38;20.00;;;15.47;;
12681;SDS011;6405;59.208;18.216;2023-06-19T05:09:05;17.47;;;14.43;;
12681;SDS011;6405;59.208;18.216;2023-06-19T05:11:30;16.23;;;14.50;;
12681;SDS011;6405;59.208;18.216;2023-06-19T05:13:56;17.63;;;15.73;;
12681;SDS011;6405;59.208;18.216;2023-06-19T05:16:22;18.33;;;16.03;;
12681;SDS011;6405;59.208;18.216;2023-06-19T05:18:49;18.83;;;16.83;;
12681;SDS011;6405;59.208;18.216;2023-06-19T05:21:16;19.43;;;15.43;;
12681;SDS011;6405;59.208;18.216;2023-06-19T05:23:42;20.30;;;16.77;;
12681;SDS011;6405;59.208;18.216;2023-06-19T05:26:07;23.53;;;17.40;;
12681;SDS011;6405;59.208;18.216;2023-06-19T05:28:34;18.63;;;16.67;;
12681;SDS011;6405;59.208;18.216;2023-06-19T05:30:59;19.60;;;17.50;;
12681;SDS011;6405;59.208;18.216;2023-06-19T05:33:25;17.93;;;15.80;;
12681;SDS011;6405;59.208;18.216;2023-06-19T05:35:52;18.70;;;15.87;;
12681;SDS011;6405;59.208;18.216;2023-06-19T05:38:19;18.47;;;15.60;;
12681;SDS011;6405;59.208;18.216;2023-06-19T05:40:50;20.37;;;16.37;;
12681;SDS011;6405;59.208;18.216;2023-06-19T05:43:18;18.40;;;16.20;;
12681;SDS011;6405;59.208;18.216;2023-06-19T05:45:44;20.67;;;15.50;;
12681;SDS011;6405;59.208;18.216;2023-06-19T05:48:09;18.87;;;15.87;;
12681;SDS011;6405;59.208;18.216;2023-06-19T05:50:35;17.83;;;15.90;;
12681;SDS011;6405;59.208;18.216;2023-06-19T05:53:01;16.77;;;15.03;;
12681;SDS011;6405;59.208;18.216;2023-06-19T05:55:27;17.77;;;15.93;;
12681;SDS011;6405;59.208;18.216;2023-06-19T05:57:53;20.80;;;16.73;;
12681;SDS011;6405;59.208;18.216;2023-06-19T06:00:19;18.20;;;16.27;;
12681;SDS011;6405;59.208;18.216;2023-06-19T06:02:45;19.37;;;15.90;;
12681;SDS011;6405;59.208;18.216;2023-06-19T06:05:11;17.40;;;15.50;;
12681;SDS011;6405;59.208;18.216;2023-06-19T06:07:36;20.07;;;16.27;;
12681;SDS011;6405;59.208;18.216;2023-06-19T06:10:02;20.90;;;16.20;;
12681;SDS011;6405;59.208;18.216;2023-06-19T06:12:29;19.27;;;15.43;;
12681;SDS011;6405;59.208;18.216;2023-06-19T06:14:55;21.43;;;16.23;;
12681;SDS011;6405;59.208;18.216;2023-06-19T06:17:20;21.93;;;16.63;;
12681;SDS011;6405;59.208;18.216;2023-06-19T06:19:46;18.43;;;15.27;;
12681;SDS011;6405;59.208;18.216;2023-06-19T06:22:12;21.27;;;15.20;;
12681;SDS011;6405;59.208;18.216;2023-06-19T06:24:38;19.43;;;16.47;;
12681;SDS011;6405;59.208;18.216;2023-06-19T06:27:03;18.63;;;16.00;;
12681;SDS011;6405;59.208;18.216;2023-06-19T06:29:30;18.33;;;15.77;;
12681;SDS011;6405;59.208;18.216;2023-06-19T06:32:08;20.43;;;16.97;;
12681;SDS011;6405;59.208;18.216;2023-06-19T06:34:34;20.67;;;15.87;;
12681;SDS011;6405;59.208;18.216;2023-06-19T06:37:00;18.33;;;15.30;;
12681;SDS011;6405;59.208;18.216;2023-06-19T06:39:26;17.87;;;15.97;;
12681;SDS011;6405;59.208;18.216;2023-06-19T06:41:52;16.63;;;14.87;;
12681;SDS011;6405;59.208;18.216;2023-06-19T06:44:18;18.53;;;16.53;;
12681;SDS011;6405;59.208;18.216;2023-06-19T06:46:44;18.47;;;16.27;;
12681;SDS011;6405;59.208;18.216;2023-06-19T06:49:10;18.33;;;15.73;;
12681;SDS011;6405;59.208;18.216;2023-06-19T06:51:37;16.10;;;14.40;;
12681;SDS011;6405;59.208;18.216;2023-06-19T06:54:03;16.83;;;15.00;;
12681;SDS011;6405;59.208;18.216;2023-06-19T06:56:29;15.90;;;13.90;;
12681;SDS011;6405;59.208;18.216;2023-06-19T06:58:54;15.67;;;14.07;;
12681;SDS011;6405;59.208;18.216;2023-06-19T07:01:20;15.70;;;14.10;;
12681;SDS011;6405;59.208;18.216;2023-06-19T07:03:46;14.90;;;13.30;;
12681;SDS011;6405;59.208;18.216;2023-06-19T07:06:12;15.07;;;13.33;;
12681;SDS011;6405;59.208;18.216;2023-06-19T07:08:38;14.20;;;12.67;;
12681;SDS011;6405;59.208;18.216;2023-06-19T07:11:06;14.77;;;13.17;;
12681;SDS011;6405;59.208;18.216;2023-06-19T07:13:33;12.57;;;11.07;;
12681;SDS011;6405;59.208;18.216;2023-06-19T07:15:58;14.13;;;12.43;;
12681;SDS011;6405;59.208;18.216;2023-06-19T07:18:26;13.27;;;11.97;;
12681;SDS011;6405;59.208;18.216;2023-06-19T07:20:52;12.40;;;11.20;;
12681;SDS011;6405;59.208;18.216;2023-06-19T07:23:18;13.27;;;12.07;;
12681;SDS011;6405;59.208;18.216;2023-06-19T07:25:45;13.10;;;11.93;;
12681;SDS011;6405;59.208;18.216;2023-06-19T07:28:11;12.07;;;10.93;;
12681;SDS011;6405;59.208;18.216;2023-06-19T07:30:37;12.13;;;11.00;;
12681;SDS011;6405;59.208;18.216;2023-06-19T07:33:03;13.13;;;11.73;;
12681;SDS011;6405;59.208;18.216;2023-06-19T07:35:29;13.60;;;11.90;;
12681;SDS011;6405;59.208;18.216;2023-06-19T07:37:55;16.10;;;14.60;;
12681;SDS011;6405;59.208;18.216;2023-06-19T07:40:20;15.87;;;14.37;;
12681;SDS011;6405;59.208;18.216;2023-06-19T07:42:46;16.50;;;14.83;;
12681;SDS011;6405;59.208;18.216;2023-06-19T07:45:12;17.83;;;15.93;;
12681;SDS011;6405;59.208;18.216;2023-06-19T07:47:38;19.60;;;17.50;;
12681;SDS011;6405;59.208;18.216;2023-06-19T07:50:06;20.00;;;18.10;;
12681;SDS011;6405;59.208;18.216;2023-06-19T07:52:32;20.30;;;18.30;;
12681;SDS011;6405;59.208;18.216;2023-06-19T07:55:00;20.57;;;18.57;;
12681;SDS011;6405;59.208;18.216;2023-06-19T07:57:26;19.63;;;17.30;;
12681;SDS011;6405;59.208;18.216;2023-06-19T07:59:52;18.57;;;16.97;;
12681;SDS011;6405;59.208;18.216;2023-06-19T08:02:19;21.00;;;18.77;;
12681;SDS011;6405;59.208;18.216;2023-06-19T08:04:45;21.93;;;19.83;;
12681;SDS011;6405;59.208;18.216;2023-06-19T08:07:11;18.53;;;16.07;;
12681;SDS011;6405;59.208;18.216;2023-06-19T08:09:37;16.83;;;14.73;;
12681;SDS011;6405;59.208;18.216;2023-06-19T08:12:03;15.27;;;13.77;;
12681;SDS011;6405;59.208;18.216;2023-06-19T08:14:29;15.00;;;13.43;;
12681;SDS011;6405;59.208;18.216;2023-06-19T08:16:55;12.47;;;11.17;;
12681;SDS011;6405;59.208;18.216;2023-06-19T08:19:21;11.10;;;10.00;;
12681;SDS011;6405;59.208;18.216;2023-06-19T08:21:46;10.97;;;9.87;;
12681;SDS011;6405;59.208;18.216;2023-06-19T08:24:12;10.07;;;9.07;;
12681;SDS011;6405;59.208;18.216;2023-06-19T08:26:38;9.70;;;8.80;;
12681;SDS011;6405;59.208;18.216;2023-06-19T08:29:04;10.40;;;9.30;;
12681;SDS011;6405;59.208;18.216;2023-06-19T08:31:29;12.70;;;10.77;;
12681;SDS011;6405;59.208;18.216;2023-06-19T08:33:55;11.57;;;10.53;;
12681;SDS011;6405;59.208;18.216;2023-06-19T08:36:22;11.30;;;10.13;;
12681;SDS011;6405;59.208;18.216;2023-06-19T08:38:47;10.70;;;9.50;;
12681;SDS011;6405;59.208;18.216;2023-06-19T08:41:17;11.90;;;9.23;;
12681;SDS011;6405;59.208;18.216;2023-06-19T08:43:46;14.03;;;9.00;;
12681;SDS011;6405;59.208;18.216;2023-06-19T08:46:15;10.07;;;9.07;;
12681;SDS011;6405;59.208;18.216;2023-06-19T08:48:45;10.03;;;8.60;;
12681;SDS011;6405;59.208;18.216;2023-06-19T08:51:11;9.40;;;8.60;;
12681;SDS011;6405;59.208;18.216;2023-06-19T08:53:48;10.30;;;9.07;;
12681;SDS011;6405;59.208;18.216;2023-06-19T08:56:19;8.93;;;8.07;;
12681;SDS011;6405;59.208;18.216;2023-06-19T08:58:45;10.57;;;8.17;;
12681;SDS011;6405;59.208;18.216;2023-06-19T09:01:10;9.03;;;7.87;;
12681;SDS011;6405;59.208;18.216;2023-06-19T09:03:36;8.80;;;7.70;;
12681;SDS011;6405;59.208;18.216;2023-06-19T09:06:02;9.63;;;7.70;;
12681;SDS011;6405;59.208;18.216;2023-06-19T09:08:28;8.63;;;7.83;;
12681;SDS011;6405;59.208;18.216;2023-06-19T09:10:55;11.43;;;7.67;;
12681;SDS011;6405;59.208;18.216;2023-06-19T09:13:25;8.97;;;8.07;;
12681;SDS011;6405;59.208;18.216;2023-06-19T09:16:00;10.03;;;8.17;;
12681;SDS011;6405;59.208;18.216;2023-06-19T09:18:45;9.13;;;7.77;;
12681;SDS011;6405;59.208;18.216;2023-06-19T09:21:16;10.03;;;7.97;;
12681;SDS011;6405;59.208;18.216;2023-06-19T09:23:48;12.37;;;8.00;;
12681;SDS011;6405;59.208;18.216;2023-06-19T09:26:16;9.57;;;7.50;;
12681;SDS011;6405;59.208;18.216;2023-06-19T09:28:44;9.17;;;8.07;;
12681;SDS011;6405;59.208;18.216;2023-06-19T09:31:10;10.10;;;7.90;;
12681;SDS011;6405;59.208;18.216;2023-06-19T09:33:38;8.90;;;8.00;;
12681;SDS011;6405;59.208;18.216;2023-06-19T09:36:05;8.40;;;7.60;;
12681;SDS011;6405;59.208;18.216;2023-06-19T09:38:32;9.73;;;7.90;;
12681;SDS011;6405;59.208;18.216;2023-06-19T09:41:01;9.03;;;7.97;;
12681;SDS011;6405;59.208;18.216;2023-06-19T09:43:36;9.50;;;7.90;;
12681;SDS011;6405;59.208;18.216;2023-06-19T09:46:03;10.87;;;7.63;;
12681;SDS011;6405;59.208;18.216;2023-06-19T09:48:30;9.47;;;7.67;;
12681;SDS011;6405;59.208;18.216;2023-06-19T09:51:00;10.37;;;7.90;;
12681;SDS011;6405;59.208;18.216;2023-06-19T09:53:37;9.17;;;8.10;;
12681;SDS011;6405;59.208;18.216;2023-06-19T09:56:05;10.93;;;8.63;;
12681;SDS011;6405;59.208;18.216;2023-06-19T09:58:33;9.40;;;8.40;;
12681;SDS011;6405;59.208;18.216;2023-06-19T10:01:00;9.60;;;7.60;;
12681;SDS011;6405;59.208;18.216;2023-06-19T10:03:32;10.57;;;8.17;;
12681;SDS011;6405;59.208;18.216;2023-06-19T10:06:00;8.43;;;7.63;;
12681;SDS011;6405;59.208;18.216;2023-06-19T10:08:31;10.33;;;8.53;;
12681;SDS011;6405;59.208;18.216;2023-06-19T10:11:03;11.03;;;8.23;;
12681;SDS011;6405;59.208;18.216;2023-06-19T10:13:33;9.27;;;7.57;;
12681;SDS011;6405;59.208;18.216;2023-06-19T10:16:05;9.67;;;8.17;;
12681;SDS011;6405;59.208;18.216;2023-06-19T10:18:32;9.57;;;8.57;;
12681;SDS011;6405;59.208;18.216;2023-06-19T10:21:20;9.67;;;7.83;;
12681;SDS011;6405;59.208;18.216;2023-06-19T10:23:53;9.10;;;8.17;;
12681;SDS011;6405;59.208;18.216;2023-06-19T10:26:28;10.33;;;7.30;;
12681;SDS011;6405;59.208;18.216;2023-06-19T10:28:58;10.30;;;7.27;;
12681;SDS011;6405;59.208;18.216;2023-06-19T10:31:24;8.77;;;7.87;;
12681;SDS011;6405;59.208;18.216;2023-06-19T10:33:50;10.90;;;8.13;;
12681;SDS011;6405;59.208;18.216;2023-06-19T10:36:17;8.03;;;7.20;;
12681;SDS011;6405;59.208;18.216;2023-06-19T10:38:44;9.37;;;7.60;;
12681;SDS011;6405;59.208;18.216;2023-06-19T10:41:18;8.83;;;7.63;;
12681;SDS011;6405;59.208;18.216;2023-06-19T10:44:05;8.53;;;7.60;;
12681;SDS011;6405;59.208;18.216;2023-06-19T10:46:37;8.37;;;7.57;;
12681;SDS011;6405;59.208;18.216;2023-06-19T10:49:04;9.30;;;7.60;;
12681;SDS011;6405;59.208;18.216;2023-06-19T10:51:35;8.97;;;7.70;;
12681;SDS011;6405;59.208;18.216;2023-06-19T10:54:02;12.87;;;8.37;;
12681;SDS011;6405;59.208;18.216;2023-06-19T10:56:28;17.00;;;9.57;;
12681;SDS011;6405;59.208;18.216;2023-06-19T10:59:00;19.10;;;9.83;;
12681;SDS011;6405;59.208;18.216;2023-06-19T11:01:35;20.83;;;10.10;;
12681;SDS011;6405;59.208;18.216;2023-06-19T11:04:06;15.03;;;9.70;;
12681;SDS011;6405;59.208;18.216;2023-06-19T11:06:33;16.07;;;10.23;;
12681;SDS011;6405;59.208;18.216;2023-06-19T11:08:59;16.30;;;9.77;;
12681;SDS011;6405;59.208;18.216;2023-06-19T11:11:39;14.27;;;9.73;;
12681;SDS011;6405;59.208;18.216;2023-06-19T11:14:13;14.70;;;10.63;;
12681;SDS011;6405;59.208;18.216;2023-06-19T11:16:44;15.13;;;9.80;;
12681;SDS011;6405;59.208;18.216;2023-06-19T11:19:20;13.40;;;10.17;;
12681;SDS011;6405;59.208;18.216;2023-06-19T11:21:51;14.80;;;10.40;;
12681;SDS011;6405;59.208;18.216;2023-06-19T11:24:18;16.97;;;10.63;;
12681;SDS011;6405;59.208;18.216;2023-06-19T11:26:45;13.57;;;9.73;;
12681;SDS011;6405;59.208;18.216;2023-06-19T11:29:25;13.10;;;10.13;;
12681;SDS011;6405;59.208;18.216;2023-06-19T11:32:04;12.33;;;9.80;;
12681;SDS011;6405;59.208;18.216;2023-06-19T11:34:32;12.23;;;9.97;;
12681;SDS011;6405;59.208;18.216;2023-06-19T11:36:59;11.70;;;9.13;;
12681;SDS011;6405;59.208;18.216;2023-06-19T11:39:24;11.47;;;10.07;;
12681;SDS011;6405;59.208;18.216;2023-06-19T11:41:50;10.57;;;9.57;;
12681;SDS011;6405;59.208;18.216;2023-06-19T11:44:16;12.10;;;9.63;;
12681;SDS011;6405;59.208;18.216;2023-06-19T11:46:42;14.80;;;9.13;;
12681;SDS011;6405;59.208;18.216;2023-06-19T11:49:11;11.20;;;9.80;;
12681;SDS011;6405;59.208;18.216;2023-06-19T11:51:38;13.37;;;9.50;;
12681;SDS011;6405;59.208;18.216;2023-06-19T11:54:06;10.57;;;9.30;;
12681;SDS011;6405;59.208;18.216;2023-06-19T11:56:36;12.27;;;9.27;;
12681;SDS011;6405;59.208;18.216;2023-06-19T11:59:03;11.40;;;9.27;;
12681;SDS011;6405;59.208;18.216;2023-06-19T12:01:29;10.07;;;9.03;;
12681;SDS011;6405;59.208;18.216;2023-06-19T12:03:58;11.43;;;9.30;;
12681;SDS011;6405;59.208;18.216;2023-06-19T12:06:24;11.73;;;9.73;;
12681;SDS011;6405;59.208;18.216;2023-06-19T12:08:50;11.50;;;9.33;;
12681;SDS011;6405;59.208;18.216;2023-06-19T12:11:16;9.90;;;8.90;;
12681;SDS011;6405;59.208;18.216;2023-06-19T12:13:42;12.97;;;9.27;;
12681;SDS011;6405;59.208;18.216;2023-06-19T12:16:09;9.30;;;8.27;;
12681;SDS011;6405;59.208;18.216;2023-06-19T12:18:35;10.50;;;8.53;;
12681;SDS011;6405;59.208;18.216;2023-06-19T12:21:01;9.33;;;8.17;;
12681;SDS011;6405;59.208;18.216;2023-06-19T12:23:28;9.73;;;7.33;;
12681;SDS011;6405;59.208;18.216;2023-06-19T12:25:54;11.37;;;8.77;;
12681;SDS011;6405;59.208;18.216;2023-06-19T12:28:19;9.37;;;8.07;;
12681;SDS011;6405;59.208;18.216;2023-06-19T12:30:47;10.20;;;8.27;;
12681;SDS011;6405;59.208;18.216;2023-06-19T12:33:19;8.50;;;7.60;;
12681;SDS011;6405;59.208;18.216;2023-06-19T12:35:45;8.83;;;7.77;;
12681;SDS011;6405;59.208;18.216;2023-06-19T12:38:11;9.23;;;8.00;;
12681;SDS011;6405;59.208;18.216;2023-06-19T12:40:37;8.20;;;7.50;;
12681;SDS011;6405;59.208;18.216;2023-06-19T12:43:04;8.47;;;7.60;;
12681;SDS011;6405;59.208;18.216;2023-06-19T12:45:29;8.40;;;7.50;;
12681;SDS011;6405;59.208;18.216;2023-06-19T12:47:55;9.40;;;8.23;;
12681;SDS011;6405;59.208;18.216;2023-06-19T12:50:21;10.10;;;8.77;;
12681;SDS011;6405;59.208;18.216;2023-06-19T12:52:47;9.30;;;8.30;;
12681;SDS011;6405;59.208;18.216;2023-06-19T12:55:13;8.63;;;7.83;;
12681;SDS011;6405;59.208;18.216;2023-06-19T12:57:39;8.40;;;7.60;;
12681;SDS011;6405;59.208;18.216;2023-06-19T13:00:07;9.10;;;8.20;;
12681;SDS011;6405;59.208;18.216;2023-06-19T13:02:35;7.90;;;7.10;;
12681;SDS011;6405;59.208;18.216;2023-06-19T13:05:01;7.83;;;7.03;;
12681;SDS011;6405;59.208;18.216;2023-06-19T13:07:27;8.90;;;8.00;;
12681;SDS011;6405;59.208;18.216;2023-06-19T13:09:53;8.30;;;7.50;;
12681;SDS011;6405;59.208;18.216;2023-06-19T13:12:21;8.97;;;8.07;;
12681;SDS011;6405;59.208;18.216;2023-06-19T13:14:47;9.30;;;8.40;;
12681;SDS011;6405;59.208;18.216;2023-06-19T13:17:13;8.53;;;7.63;;
12681;SDS011;6405;59.208;18.216;2023-06-19T13:19:39;10.73;;;7.90;;
12681;SDS011;6405;59.208;18.216;2023-06-19T13:22:05;10.17;;;7.97;;
12681;SDS011;6405;59.208;18.216;2023-06-19T13:24:31;8.93;;;8.03;;
12681;SDS011;6405;59.208;18.216;2023-06-19T13:26:57;9.33;;;8.43;;
12681;SDS011;6405;59.208;18.216;2023-06-19T13:29:23;11.40;;;8.90;;
12681;SDS011;6405;59.208;18.216;2023-06-19T13:31:49;9.00;;;8.10;;
12681;SDS011;6405;59.208;18.216;2023-06-19T13:34:15;9.57;;;8.60;;
12681;SDS011;6405;59.208;18.216;2023-06-19T13:36:41;10.93;;;8.43;;
12681;SDS011;6405;59.208;18.216;2023-06-19T13:39:07;9.80;;;8.80;;
12681;SDS011;6405;59.208;18.216;2023-06-19T13:41:33;9.57;;;8.63;;
12681;SDS011;6405;59.208;18.216;2023-06-19T13:44:00;9.80;;;8.90;;
12681;SDS011;6405;59.208;18.216;2023-06-19T13:46:26;9.60;;;8.70;;
12681;SDS011;6405;59.208;18.216;2023-06-19T13:48:52;9.83;;;8.83;;
12681;SDS011;6405;59.208;18.216;2023-06-19T13:51:18;10.37;;;8.10;;
12681;SDS011;6405;59.208;18.216;2023-06-19T13:53:45;8.47;;;7.67;;
12681;SDS011;6405;59.208;18.216;2023-06-19T13:56:11;9.37;;;8.37;;
12681;SDS011;6405;59.208;18.216;2023-06-19T13:58:37;10.97;;;9.20;;
12681;SDS011;6405;59.208;18.216;2023-06-19T14:01:04;9.97;;;8.13;;
12681;SDS011;6405;59.208;18.216;2023-06-19T14:03:31;15.57;;;9.10;;
12681;SDS011;6405;59.208;18.216;2023-06-19T14:05:57;9.33;;;8.43;;
12681;SDS011;6405;59.208;18.216;2023-06-19T14:08:23;9.47;;;8.57;;
12681;SDS011;6405;59.208;18.216;2023-06-19T14:10:49;9.73;;;8.70;;
12681;SDS011;6405;59.208;18.216;2023-06-19T14:13:16;9.50;;;8.53;;
12681;SDS011;6405;59.208;18.216;2023-06-19T14:15:42;10.07;;;9.07;;
12681;SDS011;6405;59.208;18.216;2023-06-19T14:18:07;10.30;;;9.30;;
12681;SDS011;6405;59.208;18.216;2023-06-19T14:20:33;9.80;;;8.83;;
12681;SDS011;6405;59.208;18.216;2023-06-19T14:22:59;8.80;;;7.97;;
12681;SDS011;6405;59.208;18.216;2023-06-19T14:25:26;9.07;;;8.27;;
12681;SDS011;6405;59.208;18.216;2023-06-19T14:27:52;10.23;;;9.10;;
12681;SDS011;6405;59.208;18.216;2023-06-19T14:30:18;9.53;;;8.40;;
12681;SDS011;6405;59.208;18.216;2023-06-19T14:32:44;9.03;;;8.23;;
12681;SDS011;6405;59.208;18.216;2023-06-19T14:35:09;11.53;;;8.43;;